Flight Track Log - Related Links

Times and Time Zones

All times are in EDT time to prevent confusion due to time zone crossing. See the SWA395 flight status page for this flight to view local times or setup timezone preferences in your user account.

Time Position Orientation Groundspeed Altitude Reporting Facility
EDT Latitude Longitude Course Direction KTS MPH feet Rate Location/Type
Wed 04:08:13 PM 36.1972 -95.8631 159° South 165 190 1,700  Level Kansas City Center
Wed 04:09:32 PM 36.1469 -95.8386 159° South 204 235 5,000 2,571 Climbing Kansas City Center
Wed 04:10:05 PM 36.1258 -95.8461 196° South 202 232 6,500 2,553 Climbing Kansas City Center
Wed 04:11:06 PM 36.1131 -95.9131 257° West 233 268 9,000 2,784 Climbing Kansas City Center
Wed 04:12:10 PM 36.1086 -96.0247 267° West 269 310 12,300 2,208 Climbing Kansas City Center
Wed 04:13:11 PM 36.1031 -96.1303 266° West 300 345 13,600 2,164 Climbing Kansas City Center
Wed 04:14:12 PM 36.0986 -96.2550 268° West 352 405 16,700 3,312 Climbing Kansas City Center
Wed 04:15:16 PM 36.0936 -96.3697 267° West 342 394 20,500 2,880 Climbing Kansas City Center
Wed 04:16:17 PM 36.0872 -96.4800 266° West 327 376 22,700 1,339 Climbing Kansas City Center
Wed 04:17:17 PM 36.0806 -96.6081 266° West 368 423 23,200 1,355 Climbing Kansas City Center
Wed 04:18:21 PM 36.0681 -96.7481 264° West 397 457 25,500 2,496 Climbing Kansas City Center
Wed 04:19:22 PM 36.0406 -96.8708 255° West 377 434 28,400 1,672 Climbing Kansas City Center
Wed 04:20:23 PM 36.0208 -97.0283 261° West 390 449 28,900 720 Climbing Kansas City Center
Wed 04:21:27 PM 36.0233 -97.1719 271° West 408 470 29,900 1,210 Climbing Kansas City Center
Wed 04:22:27 PM 36.0233 -97.3192 270° West 421 484 31,400 1,967 Climbing Kansas City Center
Wed 04:23:29 PM 36.0222 -97.4600 269° West 418 481 33,900 1,248 Climbing Kansas City Center
Wed 04:24:32 PM 36.0228 -97.5925 270° West 398 458 34,000 48 Climbing Kansas City Center
Wed 04:25:33 PM 36.0222 -97.7542 270° West 395 455 34,000  Level Kansas City Center
Wed 04:26:37 PM 36.0231 -97.8911 270° West 397 457 34,000  Level Kansas City Center
Wed 04:27:38 PM 36.0214 -98.0322 269° West 404 465 34,000  Level Kansas City Center
Wed 04:28:40 PM 36.0200 -98.1744 269° West 408 470 34,000  Level Kansas City Center
Wed 04:29:43 PM 36.0192 -98.3164 270° West 410 472 34,000  Level Kansas City Center
Wed 04:30:45 PM 36.0181 -98.4589 269° West 413 475 34,000  Level Kansas City Center
Wed 04:31:45 PM 36.0161 -98.6019 269° West 415 478 34,000 98 Level Kansas City Center
Wed 04:32:47 PM 36.0136 -98.7658 269° West 414 476 34,200 619 Climbing Kansas City Center
Wed 04:33:51 PM 35.9983 -98.9064 262° West 412 474 35,300 1,296 Climbing Kansas City Center
Wed 04:34:52 PM 35.9850 -99.0450 263° West 411 473 36,900 1,328 Climbing Kansas City Center
Wed 04:35:53 PM 35.9731 -99.1806 264° West 404 465 38,000 532 Climbing Kansas City Center
Wed 04:36:56 PM 35.9769 -99.3392 272° West 395 455 38,000  Level Kansas City Center
Wed 04:37:59 PM 35.9758 -99.4703 269° West 392 451 38,000  Level Kansas City Center
Wed 04:38:59 PM 35.9744 -99.6056 269° West 393 452 38,000  Level Kansas City Center
Wed 04:40:04 PM 35.9719 -99.7422 269° West 396 456 38,000  Level Kansas City Center
Wed 04:41:04 PM 35.9694 -99.8756 269° West 391 450 38,000  Level Kansas City Center
Wed 04:42:06 PM 35.9669 -100.0089 269° West 389 448 38,000  Level Kansas City Center
Wed 04:43:08 PM 35.9636 -100.1689 269° West 388 447 38,000  Level Kansas City Center
Wed 04:44:10 PM 35.9606 -100.3008 268° West 385 443 38,000  Level Kansas City Center
Wed 04:45:12 PM 35.9592 -100.4314 269° West 381 438 38,000  Level Kansas City Center
Wed 04:46:17 PM 35.9542 -100.5603 267° West 377 434 38,000  Level Albuquerque Center
Wed 04:47:19 PM 35.9519 -100.6906 269° West 377 434 38,000  Level Albuquerque Center
Wed 04:48:21 PM 35.9481 -100.8444 268° West 375 432 38,000  Level Albuquerque Center
Wed 04:49:23 PM 35.9447 -100.9769 268° West 369 425 38,000  Level Albuquerque Center
Wed 04:50:25 PM 35.9406 -101.1047 268° West 373 429 38,000  Level Albuquerque Center
Wed 04:51:27 PM 35.9369 -101.2319 268° West 373 429 38,000  Level Albuquerque Center
Wed 04:52:29 PM 35.9344 -101.3592 269° West 373 429 38,000  Level Albuquerque Center
Wed 04:53:31 PM 35.9306 -101.4833 268° West 367 422 38,000  Level Albuquerque Center
Wed 04:54:33 PM 35.9269 -101.6083 268° West 368 423 38,000  Level Albuquerque Center
Wed 04:55:35 PM 35.9214 -101.7575 267° West 366 421 38,000  Level Albuquerque Center
Wed 04:56:37 PM 35.9181 -101.8814 268° West 366 421 38,000  Level Albuquerque Center
Wed 04:57:39 PM 35.9128 -102.0094 267° West 375 432 38,000  Level Albuquerque Center
Wed 04:58:41 PM 35.9092 -102.1344 268° West 370 426 38,000  Level Albuquerque Center
Wed 04:59:43 PM 35.9036 -102.2600 267° West 369 425 38,000  Level Albuquerque Center
Wed 05:00:45 PM 35.8986 -102.4103 268° West 369 425 38,000  Level Albuquerque Center
Wed 05:01:47 PM 35.8933 -102.5353 267° West 367 422 38,000  Level Albuquerque Center
Wed 05:02:49 PM 35.8886 -102.6597 267° West 366 421 38,000  Level Albuquerque Center
Wed 05:03:51 PM 35.8836 -102.7853 267° West 367 422 38,000  Level Albuquerque Center
Wed 05:04:53 PM 35.8783 -102.9236 267° West 369 425 38,000  Level Albuquerque Center
Wed 05:05:55 PM 35.8719 -103.0506 266° West 369 425 38,000  Level Albuquerque Center
Wed 05:06:57 PM 35.8664 -103.1769 267° West 368 423 38,000  Level Albuquerque Center
Wed 05:07:59 PM 35.8614 -103.3031 267° West 367 422 38,000  Level Albuquerque Center
Wed 05:09:02 PM 35.8539 -103.4503 266° West 367 422 38,000  Level Albuquerque Center
Wed 05:10:04 PM 35.8483 -103.5775 267° West 369 425 38,000  Level Albuquerque Center
Wed 05:11:06 PM 35.8422 -103.7042 267° West 369 425 38,000  Level Albuquerque Center
Wed 05:12:08 PM 35.8350 -103.8300 266° West 368 423 38,000  Level Albuquerque Center
Wed 05:13:10 PM 35.8294 -103.9583 267° West 371 427 38,000  Level Albuquerque Center
Wed 05:14:12 PM 35.8228 -104.0847 266° West 370 426 38,000  Level Albuquerque Center
Wed 05:15:14 PM 35.8139 -104.2336 266° West 372 428 38,000  Level Albuquerque Center
Wed 05:16:16 PM 35.8078 -104.3617 267° West 373 429 38,000  Level Albuquerque Center
Wed 05:17:18 PM 35.8003 -104.4883 266° West 371 427 38,000  Level Albuquerque Center
Wed 05:18:20 PM 35.7931 -104.6139 266° West 368 423 38,000  Level Albuquerque Center
Wed 05:19:22 PM 35.7850 -104.7400 266° West 368 423 38,000  Level Albuquerque Center
Wed 05:20:24 PM 35.7775 -104.8619 266° West 360 414 38,000  Level Albuquerque Center
Wed 05:21:26 PM 35.7717 -104.9833 267° West 355 409 38,000  Level Albuquerque Center
Wed 05:22:28 PM 35.7636 -105.1308 266° West 364 419 38,000  Level Albuquerque Center
Wed 05:23:30 PM 35.7542 -105.2642 265° West 382 440 38,000  Level Albuquerque Center
Wed 05:24:32 PM 35.7461 -105.3961 266° West 385 443 38,000  Level Albuquerque Center
Wed 05:25:34 PM 35.7372 -105.5242 265° West 378 435 38,000  Level Albuquerque Center
Wed 05:26:36 PM 35.7289 -105.6614 266° West 372 428 38,000  Level Albuquerque Center
Wed 05:27:38 PM 35.7208 -105.7869 266° West 370 426 38,000  Level Albuquerque Center
Wed 05:28:40 PM 35.7119 -105.9106 265° West 366 421 38,000  Level Albuquerque Center
Wed 05:29:42 PM 35.7042 -106.0333 266° West 362 417 38,000  Level Albuquerque Center
Wed 05:30:44 PM 35.6953 -106.1564 265° West 363 418 38,000  Level Albuquerque Center
Wed 05:31:46 PM 35.6881 -106.2997 266° West 368 423 38,000  Level Albuquerque Center
Wed 05:32:48 PM 35.6772 -106.4186 264° West 365 420 38,000  Level Albuquerque Center
Wed 05:33:50 PM 35.6694 -106.5572 266° West 365 420 38,000  Level Albuquerque Center
Wed 05:34:52 PM 35.6594 -106.6786 264° West 370 426 38,000  Level Albuquerque Center
Wed 05:35:54 PM 35.6494 -106.8225 265° West 377 434 38,000  Level Albuquerque Center
Wed 05:36:55 PM 35.6394 -106.9369 264° West 379 436 38,000  Level Albuquerque Center
Wed 05:37:57 PM 35.6300 -107.0644 265° West 378 435 38,000  Level Albuquerque Center
Wed 05:38:59 PM 35.6183 -107.2133 265° West 379 436 38,000  Level Albuquerque Center
Wed 05:40:01 PM 35.6078 -107.3558 265° West 376 433 38,000  Level Albuquerque Center
Wed 05:41:03 PM 35.5967 -107.4808 264° West 381 438 38,000  Level Albuquerque Center
Wed 05:42:05 PM 35.5869 -107.6058 265° West 383 441 38,000  Level Albuquerque Center
Wed 05:43:07 PM 35.5742 -107.7519 264° West 384 442 38,000  Level Albuquerque Center
Wed 05:44:09 PM 35.5633 -107.8742 264° West 379 436 38,000  Level Albuquerque Center
Wed 05:45:10 PM 35.5533 -108.0161 265° West 375 432 38,000  Level Albuquerque Center
Wed 05:46:12 PM 35.5428 -108.1397 264° West 378 435 38,000  Level Albuquerque Center
Wed 05:47:14 PM 35.5294 -108.2839 264° West 379 436 38,000  Level Albuquerque Center
Wed 05:48:16 PM 35.5194 -108.4069 264° West 378 435 38,000  Level Albuquerque Center
Wed 05:49:18 PM 35.5086 -108.5322 264° West 382 440 38,000  Level Albuquerque Center
Wed 05:50:20 PM 35.4953 -108.6786 264° West 384 442 38,000  Level Albuquerque Center
Wed 05:51:22 PM 35.4844 -108.8036 264° West 384 442 38,000  Level Albuquerque Center
Wed 05:52:23 PM 35.4808 -108.9497 268° West 383 441 38,000  Level Albuquerque Center
Wed 05:53:25 PM 35.4875 -109.0739 274° West 381 438 38,000  Level Albuquerque Center
Wed 05:54:27 PM 35.4950 -109.2186 274° West 379 436 38,000  Level Albuquerque Center
Wed 05:55:29 PM 35.5019 -109.3444 274° West 382 440 38,000  Level Albuquerque Center
Wed 05:56:31 PM 35.5064 -109.4686 273° West 380 437 38,000  Level Albuquerque Center
Wed 05:57:32 PM 35.5131 -109.6133 273° West 381 438 38,000  Level Albuquerque Center
Wed 05:58:34 PM 35.5183 -109.7381 273° West 379 436 38,000  Level Albuquerque Center
Wed 05:59:36 PM 35.5217 -109.8814 272° West 381 438 38,000  Level Albuquerque Center
Wed 06:00:38 PM 35.5281 -110.0050 274° West 379 436 38,000  Level Albuquerque Center
Wed 06:01:39 PM 35.5331 -110.1283 273° West 378 435 38,000  Level Albuquerque Center
Wed 06:02:41 PM 35.5400 -110.2728 273° West 380 437 38,000  Level Albuquerque Center
Wed 06:03:43 PM 35.5414 -110.3969 271° West 381 438 38,000  Level Albuquerque Center
Wed 06:04:45 PM 35.5458 -110.5411 272° West 379 436 38,000  Level Albuquerque Center
Wed 06:05:46 PM 35.5497 -110.6672 272° West 383 441 38,000  Level Albuquerque Center
Wed 06:06:48 PM 35.5553 -110.8150 273° West 388 447 38,000  Level Albuquerque Center
Wed 06:07:50 PM 35.5614 -110.9425 273° West 389 448 38,000  Level Albuquerque Center
Wed 06:08:52 PM 35.5664 -111.0842 273° West 378 435 38,000  Level Albuquerque Center
Wed 06:09:53 PM 35.5689 -111.2053 271° West 372 428 38,000 -98 Level Albuquerque Center
Wed 06:10:55 PM 35.5739 -111.3267 273° West 372 428 37,800 -1,306 Descending Albuquerque Center
Wed 06:11:57 PM 35.5772 -111.4553 272° West 372 428 35,300 -2,634 Descending Albuquerque Center
Wed 06:12:58 PM 35.5811 -111.5828 272° West 377 434 32,400 -2,585 Descending Albuquerque Center
Wed 06:14:00 PM 35.5856 -111.7083 273° West 373 429 30,000 -1,161 Descending Albuquerque Center
Wed 06:15:02 PM 35.5897 -111.8589 272° West 370 426 30,000  Level Albuquerque Center
Wed 06:16:04 PM 35.5933 -111.9900 272° West 381 438 30,000 -387 Level Albuquerque Center
Wed 06:17:06 PM 35.5958 -112.1175 271° West 379 436 29,200 -881 Descending Albuquerque Center
Wed 06:17:53 PM 35.5986 -112.2208 272° West 379 436 28,400 -661 Descending Los Angeles Center
Wed 06:18:55 PM 35.6025 -112.3469 272° West 374 430 28,000 -194 Descending Los Angeles Center
Wed 06:19:57 PM 35.6044 -112.4719 271° West 371 427 28,000  Level Los Angeles Center
Wed 06:21:00 PM 35.6089 -112.6225 272° West 364 419 28,000  Level Los Angeles Center
Wed 06:22:02 PM 35.6108 -112.7456 271° West 362 417 28,000 -97 Level Los Angeles Center
Wed 06:23:04 PM 35.6136 -112.8678 272° West 359 413 27,800 -629 Descending Los Angeles Center
Wed 06:24:06 PM 35.6164 -113.0019 271° West 358 412 26,700 -1,016 Descending Los Angeles Center
Wed 06:25:08 PM 35.6175 -113.1242 271° West 356 410 25,700 -968 Descending Los Angeles Center
Wed 06:26:10 PM 35.6211 -113.2461 272° West 357 411 24,700 -968 Descending Los Angeles Center
Wed 06:27:12 PM 35.6222 -113.3703 271° West 363 418 23,700 -1,016 Descending Los Angeles Center
Wed 06:28:14 PM 35.6239 -113.4900 271° West 358 412 22,600 -823 Descending Los Angeles Center
Wed 06:29:16 PM 35.6322 -113.6056 275° West 346 398 22,000 -288 Descending Los Angeles Center
Wed 06:30:19 PM 35.6531 -113.7414 281° West 340 391 22,000 -624 Level Los Angeles Center
Wed 06:31:21 PM 35.6686 -113.8544 280° West 338 389 20,700 -1,645 Descending Los Angeles Center
Wed 06:32:23 PM 35.6842 -113.9644 280° West 329 379 18,600 -2,032 Descending Los Angeles Center
Wed 06:33:25 PM 35.7006 -114.0772 280° West 336 387 16,500 -2,081 Descending Los Angeles Center
Wed 06:34:27 PM 35.7158 -114.1933 279° West 332 382 14,300 -2,351 Descending Los Angeles Center
Wed 06:35:02 PM 35.7308 -114.2739 283° West 335 386 12,700 -1,932 Descending Los Angeles Center
Wed 06:35:26 PM 35.7361 -114.3172 279° West 334 384 12,400 -494 Descending Los Angeles Center
Wed 06:36:27 PM 35.7739 -114.3972 300° West 291 335 12,000 -197 Descending Los Angeles Center
Wed 06:37:28 PM 35.8439 -114.4294 340° North 271 312 12,000 -246 Level Los Angeles Center
Wed 06:38:29 PM 35.9117 -114.4622 339° North 267 307 11,500 -776 Descending Los Angeles Center
Wed 06:39:24 PM 35.9744 -114.4917 339° North 259 298 10,500 -776 Descending Los Angeles Center
Wed 06:40:25 PM 36.0364 -114.5267 335° Northwest 234 269 10,000 -248 Descending Los Angeles Center
Wed 06:41:25 PM 36.0531 -114.6008 286° West 234 269 10,000 -79 Level Los Angeles Center
Wed 06:41:41 PM 36.0531 -114.6064 270° West 227 261 9,900 -1,279 Descending Los Angeles Center
Wed 06:42:26 PM 36.0667 -114.6817 283° West 237 273 8,700 -1,548 Descending Los Angeles Center
Wed 06:42:43 PM 36.0697 -114.7022 280° West 236 272 8,300 -787 Descending Los Angeles Center
Wed 06:43:27 PM 36.0736 -114.7617 275° West 238 274 7,900 -774 Descending Los Angeles Center
Wed 06:43:45 PM 36.0764 -114.7839 279° West 238 274 7,500 -984 Descending Los Angeles Center
Wed 06:44:28 PM 36.0739 -114.8417 267° West 234 269 6,900 -871 Descending Los Angeles Center
Wed 06:44:47 PM 36.0753 -114.8642 274° West 235 270 6,600 -1,475 Descending Los Angeles Center
Wed 06:45:29 PM 36.0742 -114.9214 269° West 221 254 5,400 -1,452 Descending Los Angeles Center
Wed 06:45:49 PM 36.0739 -114.9400 269° West 230 265 5,100 -1,164 Descending Los Angeles Center
Wed 06:46:36 PM 36.0736 -114.9986 270° West 190 219 4,100 -1,065 Descending Los Angeles Center
Wed 06:46:51 PM 36.0739 -115.0058 273° West 213 245 4,000 -900 Descending Los Angeles Center
Wed 06:47:36 PM 36.0742 -115.0597 270° West 170 196 3,200 -871 Descending Los Angeles Center
Wed 06:47:53 PM 36.0733 -115.0650 259° West 192 221 3,100 -885 Descending Los Angeles Center
Wed 06:48:37 PM 36.0728 -115.1133 269° West 157 181 2,300 -871 Descending Los Angeles Center
Wed 06:48:55 PM 36.0739 -115.1189 284° West 175 201 2,200 -333 Descending Los Angeles Center
Wed 06:50:00 PM 36.0667 -115.1500 270° West  Level FlightAware Approximate
Wed 06:57:00 PM 36.0801 -115.1523 270° West  Level Estimated

Login

Don't have an account? Register now (free) for customized features, flight alerts, and more!